Wetterdaten: Woche 10.08.09 - 16.08.09 (KW33)
Datum Zeit Temp. Innen Temp. Aussen UV X Diff Temp. Feuchte Inne Feuchte Auss Sonnenschein Luftdruck Regen ab 0,1 Wind Sonnenschein Windben
10.08.2009 00:00 23,8 C 18,1 C 0,0 UV-I 0,0 C 64 % 87 % 0 % 1018,6 hPa 0,0 l/m 0,0 km/h (0 Bft) 0,00 h 0,0 km/h (0 Bft)
10.08.2009 01:00 23,6 C 17,7 C 0,0 UV-I 0,0 C 64 % 89 % 0 % 1018,4 hPa 0,0 l/m 0,0 km/h (0 Bft) 0,00 h 0,0 km/h (0 Bft)
10.08.2009 02:00 23,5 C 17,2 C 0,0 UV-I 0,0 C 65 % 90 % 0 % 1017,7 hPa 0,0 l/m 0,0 km/h (0 Bft) 0,00 h 0,0 km/h (0 Bft)
10.08.2009 03:00 23,3 C 16,7 C 0,0 UV-I 0,0 C 65 % 91 % 0 % 1017,6 hPa 0,0 l/m 0,0 km/h (0 Bft) 0,00 h 0,0 km/h (0 Bft)
10.08.2009 04:00 23,2 C 16,3 C 0,0 UV-I 0,0 C 65 % 92 % 0 % 1017,5 hPa 0,0 l/m 0,0 km/h (0 Bft) 0,00 h 0,1 km/h (0 Bft)
10.08.2009 05:00 23,1 C 16,1 C 0,0 UV-I 0,0 C 65 % 93 % 0 % 1017,4 hPa 0,0 l/m 0,2 km/h (0 Bft) 0,00 h 0,9 km/h (0 Bft)
10.08.2009 06:00 22,9 C 15,7 C 0,0 UV-I 0,0 C 65 % 93 % 0 % 1017,1 hPa 0,0 l/m 0,0 km/h (0 Bft) 0,00 h 0,0 km/h (0 Bft)
10.08.2009 07:00 22,8 C 15,7 C 0,2 UV-I 0,0 C 65 % 94 % 0 % 1017,0 hPa 0,0 l/m 0,5 km/h (0 Bft) 0,00 h 1,3 km/h (1 Bft)
10.08.2009 08:00 22,8 C 15,9 C 0,6 UV-I 0,2 C 65 % 94 % 6 % 1017,5 hPa 0,0 l/m 0,6 km/h (0 Bft) 0,00 h 2,0 km/h (1 Bft)
10.08.2009 09:00 22,9 C 16,4 C 1,0 UV-I 0,9 C 65 % 94 % 26 % 1017,5 hPa 0,0 l/m 0,8 km/h (0 Bft) 0,00 h 1,6 km/h (1 Bft)
10.08.2009 10:00 23,1 C 17,5 C 1,9 UV-I 1,9 C 66 % 92 % 53 % 1018,0 hPa 0,0 l/m 0,8 km/h (0 Bft) 0,13 h 2,0 km/h (1 Bft)
10.08.2009 11:00 23,4 C 19,6 C 4,6 UV-I 4,3 C 66 % 87 % 99 % 1018,1 hPa 0,0 l/m 1,1 km/h (1 Bft) 0,97 h 3,6 km/h (1 Bft)
10.08.2009 12:00 23,8 C 21,7 C 5,4 UV-I 4,0 C 66 % 77 % 86 % 1018,1 hPa 0,1 l/m 1,3 km/h (1 Bft) 0,60 h 3,7 km/h (1 Bft)
10.08.2009 13:00 24,4 C 24,0 C 6,3 UV-I 5,4 C 64 % 62 % 99 % 1017,8 hPa 0,0 l/m 2,0 km/h (1 Bft) 0,97 h 4,4 km/h (1 Bft)
10.08.2009 14:00 25,5 C 25,4 C 5,9 UV-I 4,4 C 61 % 54 % 98 % 1018,6 hPa 0,0 l/m 2,6 km/h (1 Bft) 0,87 h 4,6 km/h (1 Bft)
10.08.2009 15:00 26,9 C 26,6 C 7,0 UV-I 5,0 C 55 % 44 % 99 % 1019,6 hPa 0,0 l/m 3,3 km/h (1 Bft) 0,97 h 6,9 km/h (2 Bft)
10.08.2009 16:00 27,4 C 26,4 C 4,5 UV-I 2,1 C 52 % 41 % 56 % 1019,3 hPa 0,0 l/m 3,5 km/h (1 Bft) 0,37 h 6,6 km/h (2 Bft)
10.08.2009 17:00 27,6 C 25,4 C 2,7 UV-I 3,5 C 51 % 43 % 93 % 1018,9 hPa 0,0 l/m 4,2 km/h (1 Bft) 0,80 h 9,0 km/h (2 Bft)
10.08.2009 18:00 27,4 C 24,6 C 1,5 UV-I 1,7 C 51 % 44 % 49 % 1018,6 hPa 0,0 l/m 2,9 km/h (1 Bft) 0,30 h 5,7 km/h (1 Bft)
10.08.2009 19:00 26,5 C 23,7 C 0,7 UV-I 0,0 C 53 % 47 % 0 % 1017,3 hPa 0,0 l/m 0,8 km/h (0 Bft) 0,00 h 1,6 km/h (1 Bft)
10.08.2009 20:00 25,8 C 22,5 C 0,1 UV-I 0,0 C 55 % 55 % 0 % 1016,6 hPa 0,0 l/m 0,0 km/h (0 Bft) 0,00 h 0,0 km/h (0 Bft)
10.08.2009 21:00 25,2 C 20,7 C 0,0 UV-I 0,0 C 56 % 62 % 0 % 1016,3 hPa 0,0 l/m 0,0 km/h (0 Bft) 0,00 h 0,0 km/h (0 Bft)
10.08.2009 22:00 24,9 C 19,8 C 0,0 UV-I 0,0 C 57 % 67 % 0 % 1016,4 hPa 0,0 l/m 0,0 km/h (0 Bft) 0,00 h 0,0 km/h (0 Bft)
10.08.2009 23:00 24,7 C 19,3 C 0,0 UV-I 0,0 C 58 % 71 % 0 % 1016,6 hPa 0,0 l/m 0,2 km/h (0 Bft) 0,00 h 0,4 km/h (0 Bft)
11.08.2009 00:00 24,5 C 19,4 C 0,0 UV-I 0,0 C 58 % 71 % 0 % 1016,6 hPa 0,0 l/m 0,8 km/h (0 Bft) 0,00 h 1,8 km/h (1 Bft)
11.08.2009 01:00 24,4 C 19,2 C 0,0 UV-I 0,0 C 59 % 75 % 0 % 1016,7 hPa 0,0 l/m 0,3 km/h (0 Bft) 0,00 h 1,3 km/h (1 Bft)
11.08.2009 02:00 24,3 C 19,0 C 0,0 UV-I 0,0 C 59 % 76 % 0 % 1017,0 hPa 0,0 l/m 0,5 km/h (0 Bft) 0,00 h 2,4 km/h (1 Bft)
11.08.2009 03:00 24,2 C 18,8 C 0,0 UV-I 0,0 C 59 % 75 % 0 % 1017,1 hPa 0,0 l/m 0,5 km/h (0 Bft) 0,00 h 2,3 km/h (1 Bft)
11.08.2009 04:00 24,1 C 18,3 C 0,0 UV-I 0,0 C 60 % 79 % 0 % 1017,1 hPa 0,0 l/m 1,8 km/h (1 Bft) 0,00 h 4,3 km/h (1 Bft)
11.08.2009 05:00 23,9 C 17,3 C 0,0 UV-I 0,0 C 60 % 86 % 0 % 1017,1 hPa 0,0 l/m 1,9 km/h (1 Bft) 0,00 h 4,3 km/h (1 Bft)
11.08.2009 06:00 23,8 C 16,9 C 0,0 UV-I 0,0 C 61 % 88 % 0 % 1017,2 hPa 0,0 l/m 1,5 km/h (1 Bft) 0,00 h 4,4 km/h (1 Bft)
11.08.2009 07:00 23,7 C 17,0 C 0,0 UV-I 0,0 C 62 % 89 % 0 % 1017,5 hPa 0,0 l/m 1,7 km/h (1 Bft) 0,00 h 4,0 km/h (1 Bft)
11.08.2009 08:00 23,7 C 17,3 C 0,0 UV-I 0,0 C 62 % 91 % 0 % 1017,8 hPa 0,0 l/m 0,9 km/h (0 Bft) 0,00 h 2,1 km/h (1 Bft)
11.08.2009 09:00 23,8 C 17,9 C 0,0 UV-I 0,0 C 63 % 91 % 0 % 1018,2 hPa 0,0 l/m 1,4 km/h (1 Bft) 0,00 h 3,6 km/h (1 Bft)
11.08.2009 10:00 23,9 C 18,7 C 0,3 UV-I 0,3 C 63 % 90 % 9 % 1018,5 hPa 0,0 l/m 2,3 km/h (1 Bft) 0,00 h 5,0 km/h (1 Bft)
11.08.2009 11:00 24,1 C 19,8 C 1,0 UV-I 1,2 C 63 % 87 % 34 % 1019,0 hPa 0,0 l/m 3,1 km/h (1 Bft) 0,00 h 6,3 km/h (2 Bft)
11.08.2009 12:00 24,4 C 21,4 C 3,0 UV-I 2,2 C 62 % 81 % 62 % 1019,5 hPa 0,0 l/m 3,9 km/h (1 Bft) 0,13 h 8,5 km/h (2 Bft)
11.08.2009 13:00 24,9 C 22,9 C 4,2 UV-I 2,3 C 61 % 74 % 66 % 1019,9 hPa 0,0 l/m 4,4 km/h (1 Bft) 0,27 h 7,0 km/h (2 Bft)
11.08.2009 14:00 25,0 C 22,6 C 2,2 UV-I 0,2 C 61 % 73 % 6 % 1020,2 hPa 0,0 l/m 4,5 km/h (1 Bft) 0,00 h 9,4 km/h (2 Bft)
11.08.2009 15:00 25,2 C 22,8 C 4,3 UV-I 2,5 C 61 % 74 % 63 % 1020,5 hPa 0,0 l/m 4,3 km/h (1 Bft) 0,27 h 8,8 km/h (2 Bft)
11.08.2009 16:00 25,7 C 23,6 C 3,9 UV-I 1,9 C 59 % 68 % 55 % 1020,7 hPa 0,0 l/m 5,5 km/h (1 Bft) 0,00 h 8,9 km/h (2 Bft)
11.08.2009 17:00 26,4 C 24,0 C 2,8 UV-I 2,3 C 57 % 65 % 66 % 1021,3 hPa 0,0 l/m 5,0 km/h (1 Bft) 0,13 h 9,0 km/h (2 Bft)
11.08.2009 18:00 26,2 C 23,4 C 1,3 UV-I 0,3 C 56 % 65 % 9 % 1021,1 hPa 0,0 l/m 3,1 km/h (1 Bft) 0,00 h 6,9 km/h (2 Bft)
11.08.2009 19:00 25,7 C 22,9 C 0,8 UV-I 0,1 C 57 % 64 % 2 % 1020,6 hPa 0,0 l/m 3,6 km/h (1 Bft) 0,00 h 7,3 km/h (2 Bft)
11.08.2009 20:00 25,3 C 21,9 C 0,2 UV-I 0,0 C 58 % 65 % 0 % 1020,6 hPa 0,0 l/m 2,2 km/h (1 Bft) 0,00 h 4,9 km/h (1 Bft)
11.08.2009 21:00 24,8 C 20,4 C 0,0 UV-I 0,0 C 59 % 70 % 0 % 1021,1 hPa 0,0 l/m 0,1 km/h (0 Bft) 0,00 h 0,4 km/h (0 Bft)
11.08.2009 22:00 24,4 C 18,9 C 0,0 UV-I 0,0 C 60 % 76 % 0 % 1021,3 hPa 0,0 l/m 0,0 km/h (0 Bft) 0,00 h 0,2 km/h (0 Bft)
11.08.2009 23:00 24,2 C 17,7 C 0,0 UV-I 0,0 C 61 % 80 % 0 % 1021,3 hPa 0,0 l/m 0,0 km/h (0 Bft) 0,00 h 0,0 km/h (0 Bft)
12.08.2009 00:00 24,0 C 17,0 C 0,0 UV-I 0,0 C 61 % 84 % 0 % 1021,5 hPa 0,0 l/m 0,0 km/h (0 Bft) 0,00 h 0,0 km/h (0 Bft)
12.08.2009 01:00 23,9 C 16,6 C 0,0 UV-I 0,0 C 61 % 85 % 0 % 1021,5 hPa 0,0 l/m 0,0 km/h (0 Bft) 0,00 h 0,0 km/h (0 Bft)
12.08.2009 02:00 23,7 C 15,8 C 0,0 UV-I 0,0 C 62 % 87 % 0 % 1021,3 hPa 0,0 l/m 0,1 km/h (0 Bft) 0,00 h 0,6 km/h (0 Bft)
12.08.2009 03:00 23,5 C 15,1 C 0,0 UV-I 0,0 C 61 % 87 % 0 % 1021,1 hPa 0,0 l/m 0,1 km/h (0 Bft) 0,00 h 0,4 km/h (0 Bft)
12.08.2009 04:00 23,3 C 14,8 C 0,0 UV-I 0,0 C 61 % 89 % 0 % 1020,8 hPa 0,0 l/m 1,0 km/h (0 Bft) 0,00 h 2,5 km/h (1 Bft)
12.08.2009 05:00 23,2 C 15,2 C 0,0 UV-I 0,0 C 61 % 89 % 0 % 1020,4 hPa 0,0 l/m 1,2 km/h (1 Bft) 0,00 h 3,0 km/h (1 Bft)
12.08.2009 06:00 23,2 C 15,8 C 0,0 UV-I 0,0 C 61 % 88 % 0 % 1020,5 hPa 0,0 l/m 2,0 km/h (1 Bft) 0,00 h 6,0 km/h (2 Bft)
12.08.2009 07:00 23,2 C 16,4 C 0,1 UV-I 0,0 C 61 % 87 % 1 % 1020,4 hPa 0,0 l/m 2,8 km/h (1 Bft) 0,00 h 6,9 km/h (2 Bft)
12.08.2009 08:00 23,2 C 17,4 C 0,7 UV-I 0,4 C 61 % 84 % 12 % 1020,5 hPa 0,0 l/m 3,2 km/h (1 Bft) 0,00 h 6,4 km/h (2 Bft)
12.08.2009 09:00 23,4 C 18,5 C 1,6 UV-I 0,9 C 61 % 81 % 26 % 1020,5 hPa 0,0 l/m 3,9 km/h (1 Bft) 0,00 h 7,7 km/h (2 Bft)
12.08.2009 10:00 23,7 C 19,6 C 1,8 UV-I 1,2 C 60 % 80 % 34 % 1020,5 hPa 0,0 l/m 3,2 km/h (1 Bft) 0,00 h 7,3 km/h (2 Bft)
12.08.2009 11:00 23,9 C 20,3 C 2,0 UV-I 0,8 C 60 % 77 % 23 % 1020,6 hPa 0,0 l/m 4,0 km/h (1 Bft) 0,00 h 8,4 km/h (2 Bft)
12.08.2009 12:00 24,1 C 20,9 C 2,9 UV-I 1,2 C 60 % 76 % 36 % 1020,2 hPa 0,0 l/m 3,8 km/h (1 Bft) 0,00 h 8,2 km/h (2 Bft)
12.08.2009 13:00 24,4 C 22,4 C 4,0 UV-I 2,5 C 60 % 72 % 70 % 1019,9 hPa 0,0 l/m 4,2 km/h (1 Bft) 0,00 h 8,3 km/h (2 Bft)
12.08.2009 14:00 24,6 C 22,8 C 1,4 UV-I 0,3 C 59 % 71 % 8 % 1019,3 hPa 0,0 l/m 3,0 km/h (1 Bft) 0,00 h 5,4 km/h (1 Bft)
12.08.2009 15:00 24,4 C 21,4 C 0,7 UV-I 0,0 C 60 % 79 % 0 % 1018,8 hPa 1,2 l/m 1,4 km/h (1 Bft) 0,00 h 4,2 km/h (1 Bft)
12.08.2009 16:00 24,1 C 19,6 C 0,1 UV-I 0,0 C 61 % 87 % 0 % 1018,8 hPa 1,2 l/m 2,3 km/h (1 Bft) 0,00 h 4,4 km/h (1 Bft)
12.08.2009 17:00 23,9 C 18,7 C 0,0 UV-I 0,0 C 63 % 90 % 0 % 1018,5 hPa 1,8 l/m 2,0 km/h (1 Bft) 0,00 h 3,7 km/h (1 Bft)
12.08.2009 18:00 23,7 C 18,2 C 0,0 UV-I 0,0 C 64 % 92 % 0 % 1018,1 hPa 3,3 l/m 1,4 km/h (1 Bft) 0,00 h 3,5 km/h (1 Bft)
12.08.2009 19:00 23,6 C 18,0 C 0,0 UV-I 0,0 C 64 % 93 % 0 % 1017,7 hPa 2,9 l/m 1,1 km/h (0 Bft) 0,00 h 3,7 km/h (1 Bft)
12.08.2009 20:00 23,6 C 17,9 C 0,0 UV-I 0,0 C 65 % 93 % 0 % 1017,6 hPa 1,5 l/m 1,4 km/h (1 Bft) 0,00 h 3,4 km/h (1 Bft)
12.08.2009 21:00 23,4 C 17,5 C 0,0 UV-I 0,0 C 65 % 92 % 0 % 1017,8 hPa 0,2 l/m 0,0 km/h (0 Bft) 0,00 h 0,0 km/h (0 Bft)
12.08.2009 22:00 23,3 C 17,3 C 0,0 UV-I 0,0 C 65 % 92 % 0 % 1017,8 hPa 0,0 l/m 0,0 km/h (0 Bft) 0,00 h 0,0 km/h (0 Bft)
12.08.2009 23:00 23,2 C 17,3 C 0,0 UV-I 0,0 C 65 % 92 % 0 % 1017,5 hPa 0,0 l/m 0,0 km/h (0 Bft) 0,00 h 0,0 km/h (0 Bft)
13.08.2009 00:00 23,2 C 17,2 C 0,0 UV-I 0,0 C 65 % 93 % 0 % 1017,5 hPa 0,0 l/m 0,0 km/h (0 Bft) 0,00 h 0,0 km/h (0 Bft)
13.08.2009 01:00 23,2 C 17,3 C 0,0 UV-I 0,0 C 65 % 93 % 0 % 1017,6 hPa 0,1 l/m 0,0 km/h (0 Bft) 0,00 h 0,0 km/h (0 Bft)
13.08.2009 02:00 23,2 C 17,2 C 0,0 UV-I 0,0 C 66 % 93 % 0 % 1017,6 hPa 0,0 l/m 0,0 km/h (0 Bft) 0,00 h 0,0 km/h (0 Bft)
13.08.2009 03:00 23,1 C 16,9 C 0,0 UV-I 0,0 C 66 % 93 % 0 % 1017,3 hPa 0,0 l/m 0,0 km/h (0 Bft) 0,00 h 0,0 km/h (0 Bft)
13.08.2009 04:00 23,0 C 16,6 C 0,0 UV-I 0,0 C 66 % 94 % 0 % 1017,6 hPa 0,0 l/m 0,0 km/h (0 Bft) 0,00 h 0,2 km/h (0 Bft)
13.08.2009 05:00 23,0 C 16,3 C 0,0 UV-I 0,0 C 66 % 94 % 0 % 1017,4 hPa 0,0 l/m 0,1 km/h (0 Bft) 0,00 h 0,5 km/h (0 Bft)
13.08.2009 06:00 22,9 C 15,9 C 0,0 UV-I 0,0 C 66 % 94 % 0 % 1016,8 hPa 0,0 l/m 0,1 km/h (0 Bft) 0,00 h 0,5 km/h (0 Bft)
13.08.2009 07:00 22,8 C 15,6 C 0,1 UV-I 0,0 C 65 % 94 % 0 % 1017,1 hPa 0,0 l/m 0,4 km/h (0 Bft) 0,00 h 1,3 km/h (1 Bft)
13.08.2009 08:00 22,8 C 16,2 C 0,7 UV-I 0,2 C 65 % 95 % 6 % 1017,3 hPa 0,0 l/m 1,0 km/h (0 Bft) 0,00 h 3,7 km/h (1 Bft)
13.08.2009 09:00 23,0 C 17,2 C 0,3 UV-I 0,1 C 65 % 95 % 4 % 1017,6 hPa 0,0 l/m 1,8 km/h (1 Bft) 0,00 h 5,4 km/h (1 Bft)
13.08.2009 10:00 23,1 C 17,9 C 0,9 UV-I 0,6 C 65 % 93 % 17 % 1017,8 hPa 0,0 l/m 1,6 km/h (1 Bft) 0,00 h 4,6 km/h (1 Bft)
13.08.2009 11:00 23,4 C 19,3 C 2,8 UV-I 2,1 C 65 % 88 % 61 % 1018,1 hPa 0,0 l/m 2,4 km/h (1 Bft) 0,10 h 4,8 km/h (1 Bft)
13.08.2009 12:00 23,7 C 20,2 C 2,7 UV-I 1,5 C 64 % 81 % 42 % 1018,5 hPa 0,0 l/m 2,4 km/h (1 Bft) 0,00 h 5,2 km/h (1 Bft)
13.08.2009 13:00 23,8 C 20,3 C 1,7 UV-I 0,4 C 63 % 77 % 11 % 1018,3 hPa 0,0 l/m 1,6 km/h (1 Bft) 0,00 h 3,7 km/h (1 Bft)
13.08.2009 14:00 23,7 C 19,9 C 1,8 UV-I 0,4 C 63 % 76 % 12 % 1018,7 hPa 0,0 l/m 2,3 km/h (1 Bft) 0,00 h 5,2 km/h (1 Bft)
13.08.2009 15:00 24,4 C 21,1 C 5,5 UV-I 3,9 C 61 % 68 % 89 % 1019,0 hPa 0,0 l/m 2,0 km/h (1 Bft) 0,73 h 5,1 km/h (1 Bft)
13.08.2009 16:00 25,7 C 22,3 C 3,7 UV-I 2,6 C 56 % 61 % 70 % 1020,1 hPa 0,0 l/m 2,3 km/h (1 Bft) 0,30 h 4,8 km/h (1 Bft)
13.08.2009 17:00 25,6 C 22,3 C 2,4 UV-I 1,8 C 56 % 58 % 50 % 1019,3 hPa 0,0 l/m 2,0 km/h (1 Bft) 0,00 h 4,3 km/h (1 Bft)
13.08.2009 18:00 25,8 C 22,1 C 1,6 UV-I 1,5 C 55 % 58 % 43 % 1019,6 hPa 0,0 l/m 1,9 km/h (1 Bft) 0,13 h 4,2 km/h (1 Bft)
13.08.2009 19:00 25,2 C 21,4 C 0,8 UV-I 0,0 C 56 % 58 % 1 % 1018,5 hPa 0,0 l/m 2,6 km/h (1 Bft) 0,00 h 4,3 km/h (1 Bft)
13.08.2009 20:00 24,6 C 20,2 C 0,1 UV-I 0,0 C 57 % 67 % 0 % 1018,4 hPa 0,0 l/m 0,1 km/h (0 Bft) 0,00 h 0,2 km/h (0 Bft)
13.08.2009 21:00 24,1 C 18,4 C 0,0 UV-I 0,0 C 59 % 74 % 0 % 1018,7 hPa 0,0 l/m 0,0 km/h (0 Bft) 0,00 h 0,0 km/h (0 Bft)
13.08.2009 22:00 23,7 C 16,9 C 0,0 UV-I 0,0 C 60 % 79 % 0 % 1018,8 hPa 0,0 l/m 0,0 km/h (0 Bft) 0,00 h 0,0 km/h (0 Bft)
13.08.2009 23:00 23,4 C 15,7 C 0,0 UV-I 0,0 C 60 % 83 % 0 % 1019,5 hPa 0,0 l/m 0,0 km/h (0 Bft) 0,00 h 0,3 km/h (0 Bft)
14.08.2009 00:00 23,2 C 15,8 C 0,0 UV-I 0,0 C 61 % 84 % 0 % 1019,6 hPa 0,0 l/m 0,1 km/h (0 Bft) 0,00 h 0,3 km/h (0 Bft)
14.08.2009 01:00 23,2 C 15,9 C 0,0 UV-I 0,0 C 61 % 84 % 0 % 1019,8 hPa 0,0 l/m 0,0 km/h (0 Bft) 0,00 h 0,0 km/h (0 Bft)
14.08.2009 02:00 23,1 C 15,7 C 0,0 UV-I 0,0 C 61 % 84 % 0 % 1019,8 hPa 0,0 l/m 0,2 km/h (0 Bft) 0,00 h 0,7 km/h (0 Bft)
14.08.2009 03:00 23,0 C 15,2 C 0,0 UV-I 0,0 C 61 % 85 % 0 % 1019,7 hPa 0,0 l/m 0,0 km/h (0 Bft) 0,00 h 0,0 km/h (0 Bft)
14.08.2009 04:00 22,9 C 14,8 C 0,0 UV-I 0,0 C 61 % 86 % 0 % 1019,7 hPa 0,0 l/m 0,0 km/h (0 Bft) 0,00 h 0,0 km/h (0 Bft)
14.08.2009 05:00 22,8 C 14,5 C 0,0 UV-I 0,0 C 61 % 88 % 0 % 1019,6 hPa 0,0 l/m 0,0 km/h (0 Bft) 0,00 h 0,0 km/h (0 Bft)
14.08.2009 06:00 22,7 C 14,3 C 0,0 UV-I 0,0 C 61 % 89 % 0 % 1019,8 hPa 0,0 l/m 0,0 km/h (0 Bft) 0,00 h 0,4 km/h (0 Bft)
14.08.2009 07:00 22,6 C 14,1 C 0,3 UV-I 0,0 C 61 % 89 % 0 % 1020,0 hPa 0,0 l/m 0,2 km/h (0 Bft) 0,00 h 1,0 km/h (0 Bft)
14.08.2009 08:00 22,6 C 14,7 C 1,0 UV-I 0,4 C 61 % 89 % 11 % 1020,2 hPa 0,0 l/m 0,4 km/h (0 Bft) 0,00 h 1,3 km/h (1 Bft)
14.08.2009 09:00 22,7 C 16,1 C 1,9 UV-I 2,0 C 61 % 86 % 57 % 1020,7 hPa 0,0 l/m 0,8 km/h (0 Bft) 0,13 h 2,2 km/h (1 Bft)
14.08.2009 10:00 22,9 C 17,9 C 5,5 UV-I 5,0 C 60 % 78 % 97 % 1021,0 hPa 0,0 l/m 0,9 km/h (0 Bft) 0,90 h 2,8 km/h (1 Bft)
14.08.2009 11:00 23,2 C 20,0 C 6,6 UV-I 4,9 C 59 % 68 % 100 % 1021,3 hPa 0,0 l/m 1,1 km/h (1 Bft) 0,90 h 2,6 km/h (1 Bft)
14.08.2009 12:00 23,5 C 21,4 C 7,6 UV-I 5,9 C 57 % 60 % 100 % 1021,0 hPa 0,0 l/m 1,8 km/h (1 Bft) 1,00 h 4,0 km/h (1 Bft)
14.08.2009 13:00 23,9 C 22,3 C 3,0 UV-I 1,5 C 56 % 57 % 39 % 1021,0 hPa 0,0 l/m 1,1 km/h (1 Bft) 0,17 h 3,2 km/h (1 Bft)
14.08.2009 14:00 24,2 C 22,4 C 3,4 UV-I 1,5 C 55 % 56 % 41 % 1020,9 hPa 0,0 l/m 0,9 km/h (0 Bft) 0,10 h 2,5 km/h (1 Bft)
14.08.2009 15:00 25,4 C 23,6 C 6,6 UV-I 5,1 C 52 % 51 % 98 % 1022,3 hPa 0,0 l/m 3,3 km/h (1 Bft) 0,97 h 6,6 km/h (2 Bft)
14.08.2009 16:00 27,1 C 24,9 C 6,4 UV-I 4,6 C 47 % 48 % 100 % 1023,5 hPa 0,0 l/m 2,5 km/h (1 Bft) 1,00 h 4,7 km/h (1 Bft)
14.08.2009 17:00 27,6 C 24,9 C 2,5 UV-I 2,5 C 45 % 46 % 62 % 1022,8 hPa 0,0 l/m 1,8 km/h (1 Bft) 0,37 h 3,7 km/h (1 Bft)
14.08.2009 18:00 26,3 C 23,5 C 1,6 UV-I 0,1 C 47 % 49 % 4 % 1020,9 hPa 0,0 l/m 0,9 km/h (0 Bft) 0,00 h 2,2 km/h (1 Bft)
14.08.2009 19:00 25,5 C 22,4 C 0,8 UV-I 0,0 C 49 % 53 % 0 % 1019,9 hPa 0,0 l/m 0,8 km/h (0 Bft) 0,00 h 2,2 km/h (1 Bft)
14.08.2009 20:00 25,0 C 21,0 C 0,1 UV-I 0,0 C 51 % 60 % 0 % 1019,4 hPa 0,0 l/m 0,0 km/h (0 Bft) 0,00 h 0,0 km/h (0 Bft)
14.08.2009 21:00 24,4 C 19,0 C 0,0 UV-I 0,0 C 53 % 69 % 0 % 1019,2 hPa 0,0 l/m 0,0 km/h (0 Bft) 0,00 h 0,0 km/h (0 Bft)
14.08.2009 22:00 24,0 C 17,1 C 0,0 UV-I 0,0 C 55 % 76 % 0 % 1019,3 hPa 0,0 l/m 0,0 km/h (0 Bft) 0,00 h 0,0 km/h (0 Bft)
14.08.2009 23:00 23,7 C 15,8 C 0,0 UV-I 0,0 C 56 % 81 % 0 % 1019,3 hPa 0,0 l/m 0,0 km/h (0 Bft) 0,00 h 0,0 km/h (0 Bft)
15.08.2009 00:00 23,4 C 15,0 C 0,0 UV-I 0,0 C 56 % 84 % 0 % 1019,1 hPa 0,0 l/m 0,4 km/h (0 Bft) 0,00 h 1,3 km/h (1 Bft)
15.08.2009 01:00 23,2 C 14,5 C 0,0 UV-I 0,0 C 57 % 85 % 0 % 1019,1 hPa 0,0 l/m 0,0 km/h (0 Bft) 0,00 h 0,0 km/h (0 Bft)
15.08.2009 02:00 23,0 C 13,9 C 0,0 UV-I 0,0 C 57 % 86 % 0 % 1018,8 hPa 0,0 l/m 1,0 km/h (0 Bft) 0,00 h 2,1 km/h (1 Bft)
15.08.2009 03:00 22,8 C 13,9 C 0,0 UV-I 0,1 C 56 % 86 % 0 % 1018,4 hPa 0,0 l/m 2,2 km/h (1 Bft) 0,00 h 3,8 km/h (1 Bft)
15.08.2009 04:00 22,7 C 13,8 C 0,0 UV-I 0,0 C 56 % 87 % 0 % 1018,2 hPa 0,0 l/m 0,7 km/h (0 Bft) 0,00 h 1,1 km/h (0 Bft)
15.08.2009 05:00 22,6 C 13,4 C 0,0 UV-I 0,0 C 56 % 88 % 0 % 1018,1 hPa 0,0 l/m 1,1 km/h (0 Bft) 0,00 h 2,6 km/h (1 Bft)
15.08.2009 06:00 22,1 C 13,1 C 0,0 UV-I 0,0 C 55 % 88 % 0 % 1017,8 hPa 0,0 l/m 0,1 km/h (0 Bft) 0,00 h 0,7 km/h (0 Bft)
15.08.2009 07:00 21,7 C 12,9 C 0,3 UV-I 0,0 C 56 % 89 % 0 % 1017,8 hPa 0,0 l/m 1,8 km/h (1 Bft) 0,00 h 3,6 km/h (1 Bft)
15.08.2009 08:00 21,6 C 13,9 C 1,0 UV-I 0,7 C 57 % 89 % 21 % 1017,5 hPa 0,0 l/m 2,8 km/h (1 Bft) 0,00 h 5,4 km/h (1 Bft)
15.08.2009 09:00 21,9 C 15,9 C 1,6 UV-I 2,0 C 57 % 86 % 54 % 1017,8 hPa 0,0 l/m 1,7 km/h (1 Bft) 0,10 h 3,8 km/h (1 Bft)
15.08.2009 10:00 22,2 C 18,9 C 8,5 UV-I 6,4 C 58 % 78 % 100 % 1017,6 hPa 0,0 l/m 2,8 km/h (1 Bft) 0,77 h 5,9 km/h (2 Bft)
15.08.2009 11:00 22,6 C 23,0 C 11,2 UV-I 4,7 C 58 % 64 % 100 % 1017,9 hPa 0,0 l/m 4,9 km/h (1 Bft) 0,80 h 8,9 km/h (2 Bft)
15.08.2009 12:00 23,0 C 25,8 C 9,8 UV-I 4,3 C 56 % 53 % 100 % 1017,6 hPa 0,0 l/m 4,6 km/h (1 Bft) 0,92 h 7,5 km/h (2 Bft)
15.08.2009 13:00 23,8 C 27,7 C 6,4 UV-I 3,8 C 55 % 46 % 100 % 1017,4 hPa 0,0 l/m 5,0 km/h (1 Bft) 0,97 h 11,1 km/h (2 Bft)
15.08.2009 14:00 25,4 C 29,4 C 7,4 UV-I 3,4 C 51 % 42 % 94 % 1018,8 hPa 0,0 l/m 5,0 km/h (1 Bft) 0,97 h 8,8 km/h (2 Bft)
15.08.2009 15:00 27,3 C 30,5 C 9,3 UV-I 3,3 C 46 % 38 % 93 % 1020,1 hPa 0,0 l/m 4,9 km/h (1 Bft) 0,97 h 8,8 km/h (2 Bft)
15.08.2009 16:00 28,8 C 31,3 C 7,7 UV-I 3,6 C 42 % 35 % 99 % 1020,6 hPa 0,0 l/m 3,8 km/h (1 Bft) 0,90 h 7,3 km/h (2 Bft)
15.08.2009 17:00 29,4 C 30,6 C 2,0 UV-I 2,5 C 40 % 36 % 72 % 1019,6 hPa 0,0 l/m 4,0 km/h (1 Bft) 0,40 h 8,2 km/h (2 Bft)
15.08.2009 18:00 28,3 C 29,2 C 1,4 UV-I 0,3 C 43 % 39 % 9 % 1017,7 hPa 0,0 l/m 2,6 km/h (1 Bft) 0,00 h 4,8 km/h (1 Bft)
15.08.2009 19:00 27,2 C 28,1 C 0,7 UV-I 0,0 C 45 % 41 % 0 % 1015,8 hPa 0,0 l/m 1,8 km/h (1 Bft) 0,00 h 3,8 km/h (1 Bft)
15.08.2009 20:00 26,5 C 26,6 C 0,1 UV-I 0,0 C 47 % 47 % 0 % 1015,4 hPa 0,0 l/m 0,2 km/h (0 Bft) 0,00 h 0,2 km/h (0 Bft)
15.08.2009 21:00 25,9 C 24,2 C 0,0 UV-I 0,0 C 50 % 55 % 0 % 1015,7 hPa 0,0 l/m 0,0 km/h (0 Bft) 0,00 h 0,1 km/h (0 Bft)
15.08.2009 22:00 25,4 C 22,0 C 0,0 UV-I 0,0 C 52 % 61 % 0 % 1015,6 hPa 0,0 l/m 0,0 km/h (0 Bft) 0,00 h 0,0 km/h (0 Bft)
15.08.2009 23:00 25,1 C 21,2 C 0,0 UV-I 0,0 C 52 % 62 % 0 % 1015,6 hPa 0,0 l/m 0,1 km/h (0 Bft) 0,00 h 0,2 km/h (0 Bft)
16.08.2009 00:00 24,8 C 20,2 C 0,0 UV-I 0,0 C 53 % 66 % 0 % 1015,6 hPa 0,0 l/m 0,1 km/h (0 Bft) 0,00 h 0,9 km/h (0 Bft)
16.08.2009 01:00 24,6 C 19,7 C 0,0 UV-I 0,0 C 54 % 69 % 0 % 1015,4 hPa 0,0 l/m 1,2 km/h (1 Bft) 0,00 h 2,8 km/h (1 Bft)
16.08.2009 02:00 24,4 C 19,0 C 0,0 UV-I 0,0 C 55 % 72 % 0 % 1015,5 hPa 0,0 l/m 0,2 km/h (0 Bft) 0,00 h 0,6 km/h (0 Bft)
16.08.2009 03:00 24,1 C 18,0 C 0,0 UV-I 0,0 C 56 % 77 % 0 % 1015,5 hPa 0,0 l/m 0,0 km/h (0 Bft) 0,00 h 0,0 km/h (0 Bft)
16.08.2009 04:00 23,9 C 17,1 C 0,0 UV-I 0,0 C 57 % 81 % 0 % 1015,4 hPa 0,0 l/m 0,0 km/h (0 Bft) 0,00 h 0,0 km/h (0 Bft)
16.08.2009 05:00 23,7 C 16,3 C 0,0 UV-I 0,0 C 58 % 84 % 0 % 1015,7 hPa 0,0 l/m 0,0 km/h (0 Bft) 0,00 h 0,0 km/h (0 Bft)
16.08.2009 06:00 23,5 C 15,8 C 0,0 UV-I 0,0 C 58 % 86 % 0 % 1015,8 hPa 0,0 l/m 0,0 km/h (0 Bft) 0,00 h 0,0 km/h (0 Bft)
16.08.2009 07:00 23,4 C 16,0 C 0,4 UV-I 0,0 C 59 % 88 % 0 % 1016,5 hPa 0,0 l/m 0,1 km/h (0 Bft) 0,00 h 0,5 km/h (0 Bft)
16.08.2009 08:00 23,3 C 16,7 C 0,8 UV-I 0,4 C 60 % 88 % 12 % 1017,1 hPa 0,0 l/m 0,9 km/h (0 Bft) 0,00 h 3,3 km/h (1 Bft)
16.08.2009 09:00 23,3 C 17,2 C 0,5 UV-I 0,3 C 60 % 88 % 8 % 1017,2 hPa 0,0 l/m 0,9 km/h (0 Bft) 0,00 h 3,0 km/h (1 Bft)
16.08.2009 10:00 23,4 C 17,8 C 1,1 UV-I 0,7 C 61 % 87 % 19 % 1017,4 hPa 0,0 l/m 1,3 km/h (1 Bft) 0,00 h 3,7 km/h (1 Bft)
16.08.2009 11:00 23,5 C 18,8 C 1,6 UV-I 0,9 C 61 % 85 % 24 % 1017,5 hPa 0,0 l/m 1,7 km/h (1 Bft) 0,00 h 4,1 km/h (1 Bft)
16.08.2009 12:00 23,7 C 19,7 C 2,3 UV-I 1,4 C 61 % 82 % 39 % 1017,6 hPa 0,0 l/m 1,5 km/h (1 Bft) 0,00 h 3,6 km/h (1 Bft)
16.08.2009 13:00 24,1 C 21,2 C 4,5 UV-I 3,4 C 61 % 77 % 90 % 1017,7 hPa 0,0 l/m 2,3 km/h (1 Bft) 0,73 h 6,2 km/h (2 Bft)
16.08.2009 14:00 25,3 C 23,6 C 6,8 UV-I 5,4 C 58 % 69 % 100 % 1019,0 hPa 0,0 l/m 2,7 km/h (1 Bft) 0,83 h 5,7 km/h (1 Bft)
16.08.2009 15:00 27,0 C 25,5 C 8,3 UV-I 5,4 C 54 % 62 % 100 % 1020,2 hPa 0,0 l/m 2,1 km/h (1 Bft) 0,77 h 4,4 km/h (1 Bft)
16.08.2009 16:00 28,4 C 27,1 C 6,3 UV-I 4,4 C 51 % 56 % 100 % 1020,5 hPa 0,0 l/m 2,5 km/h (1 Bft) 0,90 h 6,3 km/h (2 Bft)
16.08.2009 17:00 28,9 C 26,8 C 2,4 UV-I 3,2 C 49 % 53 % 82 % 1019,2 hPa 0,0 l/m 2,9 km/h (1 Bft) 0,47 h 7,2 km/h (2 Bft)
16.08.2009 18:00 28,0 C 25,7 C 1,6 UV-I 0,8 C 50 % 57 % 23 % 1017,7 hPa 0,0 l/m 3,5 km/h (1 Bft) 0,00 h 7,0 km/h (2 Bft)
16.08.2009 19:00 26,8 C 24,7 C 0,6 UV-I 0,0 C 54 % 63 % 0 % 1016,4 hPa 0,0 l/m 1,9 km/h (1 Bft) 0,00 h 4,2 km/h (1 Bft)
16.08.2009 20:00 26,1 C 23,5 C 0,0 UV-I 0,0 C 57 % 68 % 0 % 1015,9 hPa 0,0 l/m 0,2 km/h (0 Bft) 0,00 h 0,2 km/h (0 Bft)
16.08.2009 21:00 25,6 C 21,7 C 0,0 UV-I 0,0 C 58 % 73 % 0 % 1016,2 hPa 0,0 l/m 0,0 km/h (0 Bft) 0,00 h 0,0 km/h (0 Bft)
16.08.2009 22:00 25,1 C 20,0 C 0,0 UV-I 0,0 C 60 % 79 % 0 % 1016,3 hPa 0,0 l/m 0,0 km/h (0 Bft) 0,00 h 0,0 km/h (0 Bft)
16.08.2009 23:00 24,6 C 18,9 C 0,0 UV-I 0,0 C 61 % 83 % 0 % 1016,4 hPa 0,0 l/m 0,1 km/h (0 Bft) 0,00 h 0,5 km/h (0 Bft)
Min-Datum _ 15.08.09 15.08.09 10.08.09 10.08.09 15.08.09 15.08.09 10.08.09 16.08.09 - 10.08.09 - 10.08.09
_ Min-Zeit 07:42 07:00 00:00 00:00 16:52 16:38 00:00 02:36 - 00:00 - 00:00
Minimum _ 21,6 C 12,8 C 0,0 UV-I 0,0 C 40 % 33 % 0 % 1015,2 hPa - 0,0 km/h (0 Bft) - 0,0 km/h (0 Bft)
Max-Datum _ 15.08.09 15.08.09 15.08.09 14.08.09 10.08.09 13.08.09 10.08.09 14.08.09 12.08.09 11.08.09 10.08.09 15.08.09
_ Max-Zeit 17:06 16:44 10:52 12:42 11:36 08:12 11:06 16:36 18:44 16:30 10:52 15:32
Maximum _ 29,5 C 31,5 C 12,3 UV-I 7,4 C 67 % 95 % 100 % 1023,8 hPa 3,3 l/m 6,7 km/h
W-SW (2 Bft)
0,03 h 23,3 km/h
NO (4 Bft)
Durchschnitt _ 24,3 C 19,6 C 1,5 UV-I 1,0 C 59 % 76 % 23 % 1018,6 hPa #12,4 l/m 1,4 km/h (1 Bft) #24:03 h 3,1 km/h (1 Bft)
© 2012 W. Hausmann